Terminal Aerodrome Forecast
Issued by NWS Billings, MT

Home | Current Version | Previous Version | Text Only | Print | Product List | Glossary On
Versions: 1 2 3 4 5 6 7 8 9 10 11 12
000
FTUS45 KBYZ 272331
TAFMLS
TAF
KMLS 272331Z 2800/2824 VRB06KT P6SM SKC
     FM281200 35010G15KT P6SM SKC
     FM281600 04010KT P6SM SKC=

USA.gov is the U.S. government's official web portal to all federal, state and local government web resources and services.